createdAt,value
2019-04-14T00:00:27.477Z,42.65
2019-04-14T00:01:26.435Z,42.64
2019-04-14T00:02:27.463Z,42.63
2019-04-14T00:03:26.347Z,42.64
2019-04-14T00:04:27.322Z,42.64
2019-04-14T00:05:26.155Z,42.67
2019-04-14T00:06:26.809Z,42.7
2019-04-14T00:07:27.598Z,42.64
2019-04-14T00:08:26.585Z,42.69
2019-04-14T00:09:27.573Z,42.59
2019-04-14T00:10:27.031Z,42.62
2019-04-14T00:11:26.419Z,42.66
2019-04-14T00:12:27.433Z,42.62
2019-04-14T00:13:26.520Z,42.64
2019-04-14T00:14:27.482Z,42.61
2019-04-14T00:15:54.986Z,42.61
2019-04-14T00:16:27.241Z,42.7
2019-04-14T00:17:26.444Z,42.63
2019-04-14T00:18:27.426Z,42.62
2019-04-14T00:19:26.471Z,42.64
2019-04-14T00:20:27.409Z,42.64
2019-04-14T00:21:26.371Z,42.67
2019-04-14T00:22:33.803Z,42.62
2019-04-14T00:23:26.335Z,42.67
2019-04-14T00:24:27.350Z,42.66
2019-04-14T00:25:26.505Z,42.67
2019-04-14T00:26:27.635Z,42.72
2019-04-14T00:27:26.356Z,42.68
2019-04-14T00:28:27.345Z,42.69
2019-04-14T00:29:26.547Z,42.65
2019-04-14T00:30:27.495Z,42.72
2019-04-14T00:31:26.464Z,42.67
2019-04-14T00:32:27.081Z,42.66
2019-04-14T00:33:26.155Z,42.66
2019-04-14T00:34:27.112Z,42.67
2019-04-14T00:35:26.061Z,42.64
2019-04-14T00:36:26.381Z,42.69
2019-04-14T00:37:27.631Z,42.7
2019-04-14T00:38:26.295Z,42.69
2019-04-14T00:39:27.547Z,42.69
2019-04-14T00:40:34.823Z,42.67
2019-04-14T00:42:26.152Z,42.67
2019-04-14T00:43:26.861Z,42.69
2019-04-14T00:44:27.688Z,42.69
2019-04-14T00:46:03.927Z,42.65
2019-04-14T00:46:27.314Z,42.65
2019-04-14T00:47:27.069Z,42.69
2019-04-14T00:48:26.209Z,42.71
2019-04-14T00:49:27.088Z,42.66
2019-04-14T00:50:27.387Z,42.66
2019-04-14T00:51:26.750Z,42.67
2019-04-14T00:52:27.914Z,42.68
2019-04-14T00:53:27.656Z,42.63
2019-04-14T00:54:26.222Z,42.59
2019-04-14T00:55:27.334Z,42.69
2019-04-14T00:56:26.154Z,42.71
2019-04-14T00:57:27.138Z,42.68
2019-04-14T00:58:26.241Z,42.69
2019-04-14T00:59:27.084Z,42.68
2019-04-14T01:00:26.116Z,42.67
2019-04-14T01:01:26.753Z,42.68
2019-04-14T01:02:27.608Z,42.67
2019-04-14T01:03:26.773Z,42.64
2019-04-14T01:04:27.526Z,42.64
2019-04-14T01:05:26.475Z,42.69
2019-04-14T01:06:27.520Z,42.7
2019-04-14T01:07:26.397Z,42.68
2019-04-14T01:08:27.223Z,42.69
2019-04-14T01:09:26.413Z,42.72
2019-04-14T01:10:26.002Z,42.66
2019-04-14T01:11:27.278Z,42.7
2019-04-14T01:12:26.048Z,42.64
2019-04-14T01:13:27.071Z,42.73
2019-04-14T01:14:26.044Z,42.73
2019-04-14T01:15:26.967Z,42.7
2019-04-14T01:16:29.847Z,42.73
2019-04-14T01:17:26.772Z,42.69
2019-04-14T01:18:26.063Z,42.73
2019-04-14T01:19:26.910Z,42.69
2019-04-14T01:20:27.259Z,42.69
2019-04-14T01:21:26.613Z,42.67
2019-04-14T01:22:27.308Z,42.71
2019-04-14T01:23:26.417Z,42.66
2019-04-14T01:24:27.381Z,42.73
2019-04-14T01:25:26.275Z,42.76
2019-04-14T01:26:26.951Z,42.7
2019-04-14T01:27:27.995Z,42.73
2019-04-14T01:28:26.777Z,42.7
2019-04-14T01:29:25.997Z,42.78
2019-04-14T01:30:26.460Z,42.71
2019-04-14T01:31:27.512Z,42.72
2019-04-14T01:32:26.356Z,42.72
2019-04-14T01:33:27.515Z,42.79
2019-04-14T01:34:26.270Z,42.72
2019-04-14T01:35:27.364Z,42.75
2019-04-14T01:36:26.088Z,42.68
2019-04-14T01:37:27.120Z,42.75
2019-04-14T01:38:26.170Z,42.77
2019-04-14T01:39:26.784Z,42.77
2019-04-14T01:40:27.366Z,42.71
2019-04-14T01:41:26.293Z,42.77
2019-04-14T01:42:27.071Z,42.73
2019-04-14T01:43:26.242Z,42.75
2019-04-14T01:44:26.694Z,42.73
2019-04-14T01:45:25.988Z,42.75
2019-04-14T01:46:37.563Z,42.71
2019-04-14T01:47:27.298Z,42.75
2019-04-14T01:48:25.995Z,42.71
2019-04-14T01:49:27.132Z,42.76
2019-04-14T01:50:25.972Z,42.76
2019-04-14T01:51:26.928Z,42.75
2019-04-14T01:52:27.555Z,42.7
2019-04-14T01:53:27.324Z,42.75
2019-04-14T01:54:26.075Z,42.73
2019-04-14T01:55:26.786Z,42.74
2019-04-14T01:56:27.571Z,42.77
2019-04-14T01:57:26.551Z,42.71
2019-04-14T01:58:27.397Z,42.75
2019-04-14T01:59:26.573Z,42.85
2019-04-14T02:00:27.181Z,42.78
2019-04-14T02:01:26.383Z,42.74
2019-04-14T02:02:27.317Z,42.75
2019-04-14T02:03:28.234Z,42.82
2019-04-14T02:04:27.083Z,42.78
2019-04-14T02:05:26.130Z,42.77
2019-04-14T02:06:26.800Z,42.74
2019-04-14T02:07:26.063Z,42.8
2019-04-14T02:08:26.526Z,42.76
2019-04-14T02:09:27.478Z,42.79
2019-04-14T02:10:26.131Z,42.78
2019-04-14T02:11:27.277Z,42.76
2019-04-14T02:12:26.132Z,42.75
2019-04-14T02:13:27.090Z,42.76
2019-04-14T02:14:26.120Z,42.76
2019-04-14T02:15:26.818Z,42.73
2019-04-14T02:17:26.608Z,42.79
2019-04-14T02:18:27.539Z,42.8
2019-04-14T02:19:26.619Z,42.8
2019-04-14T02:20:27.460Z,42.81
2019-04-14T02:21:26.280Z,42.8
2019-04-14T02:22:26.844Z,42.82
2019-04-14T02:23:26.236Z,42.78
2019-04-14T02:24:26.625Z,42.79
2019-04-14T02:25:25.943Z,42.81
2019-04-14T02:26:26.548Z,42.75
2019-04-14T02:27:27.220Z,42.81
2019-04-14T02:28:26.802Z,42.79
2019-04-14T02:29:26.022Z,42.76
2019-04-14T03:56:27.202Z,42.71
2019-04-14T03:57:32.878Z,42.74
2019-04-14T03:58:27.364Z,42.82
2019-04-14T03:59:26.512Z,42.82
2019-04-14T04:00:31.780Z,42.75
2019-04-14T04:01:26.044Z,42.78
2019-04-14T04:02:27.459Z,42.74
2019-04-14T04:03:26.324Z,42.79
2019-04-14T04:04:27.858Z,42.7
2019-04-14T04:05:26.266Z,42.7
2019-04-14T04:06:27.286Z,42.65
2019-04-14T04:07:26.197Z,42.61
2019-04-14T04:08:27.089Z,42.67
2019-04-14T04:09:26.069Z,42.59
2019-04-14T04:10:27.284Z,42.56
2019-04-14T04:11:26.154Z,42.57
2019-04-14T04:12:27.433Z,42.57
2019-04-14T04:13:28.319Z,42.56
2019-04-14T04:14:27.349Z,42.55
2019-04-14T04:15:26.251Z,42.59
2019-04-14T04:16:27.134Z,42.54
2019-04-14T04:17:26.020Z,42.55
2019-04-14T04:18:26.851Z,42.53
2019-04-14T04:19:27.495Z,42.48
2019-04-14T04:20:26.662Z,42.53
2019-04-14T04:21:27.375Z,42.51
2019-04-14T04:22:26.252Z,42.47
2019-04-14T04:23:27.295Z,42.53
2019-04-14T04:24:35.315Z,42.55
2019-04-14T04:25:27.097Z,42.61
2019-04-14T04:26:26.220Z,42.56
2019-04-14T04:27:26.800Z,42.56
2019-04-14T04:28:26.129Z,42.51
2019-04-14T04:29:26.829Z,42.49
2019-04-14T04:30:26.239Z,42.55
2019-04-14T04:31:26.742Z,42.54
2019-04-14T04:32:26.229Z,42.6
2019-04-14T04:33:26.641Z,42.57
2019-04-14T04:34:27.523Z,42.57
2019-04-14T04:35:26.250Z,42.58
2019-04-14T04:36:27.194Z,42.59
2019-04-14T04:37:26.029Z,42.56
2019-04-14T04:38:27.188Z,42.57
2019-04-14T04:39:26.047Z,42.59
2019-04-14T04:40:27.120Z,42.54
2019-04-14T04:41:26.164Z,42.58
2019-04-14T04:42:26.829Z,42.65
2019-04-14T04:43:27.870Z,42.62
2019-04-14T04:44:27.320Z,42.61
2019-04-14T04:45:26.160Z,42.55
2019-04-14T04:46:26.860Z,42.62
2019-04-14T04:47:27.573Z,42.61
2019-04-14T04:48:26.649Z,42.58
2019-04-14T04:49:34.377Z,42.59
2019-04-14T04:50:26.243Z,42.64
2019-04-14T04:51:27.112Z,42.59
2019-04-14T04:52:26.157Z,42.61
2019-04-14T04:53:26.911Z,42.56
2019-04-14T04:54:25.981Z,42.58
2019-04-14T04:55:26.493Z,42.59
2019-04-14T04:56:27.659Z,42.57
2019-04-14T04:57:26.614Z,42.6
2019-04-14T04:58:26.518Z,42.57
2019-04-14T04:59:25.915Z,42.58
2019-04-14T05:00:26.869Z,42.58
2019-04-14T05:01:27.553Z,42.56
2019-04-14T05:02:26.890Z,42.53
2019-04-14T05:03:26.095Z,42.58
2019-04-14T05:04:26.917Z,42.57
2019-04-14T05:05:26.146Z,42.58
2019-04-14T05:06:26.883Z,42.57
2019-04-14T05:07:25.923Z,42.6
2019-04-14T05:08:26.601Z,42.58
2019-04-14T05:09:27.689Z,42.55
2019-04-14T05:10:26.615Z,42.55
2019-04-14T05:11:27.560Z,42.53
2019-04-14T05:12:26.514Z,42.51
2019-04-14T05:13:27.242Z,42.53
2019-04-14T05:14:26.445Z,42.51
2019-04-14T05:15:27.268Z,42.52
2019-04-14T05:16:26.225Z,42.51
2019-04-14T05:17:26.152Z,42.5
2019-04-14T05:18:29.353Z,42.5
2019-04-14T05:19:43.674Z,42.51
2019-04-14T05:20:27.301Z,42.48
2019-04-14T05:21:26.066Z,42.46
2019-04-14T05:22:27.008Z,42.45
2019-04-14T05:23:26.233Z,42.44
2019-04-14T05:24:27.171Z,42.46
2019-04-14T05:25:27.477Z,42.4
2019-04-14T05:26:26.823Z,42.41
2019-04-14T05:27:27.600Z,42.42
2019-04-14T05:28:27.065Z,42.44
2019-04-14T05:29:27.698Z,42.43
2019-04-14T05:30:26.653Z,42.4
2019-04-14T05:31:32.244Z,42.42
2019-04-14T05:32:26.453Z,42.4
2019-04-14T05:33:27.469Z,42.39
2019-04-14T05:34:26.383Z,42.38
2019-04-14T05:35:27.202Z,42.36
2019-04-14T05:36:26.279Z,42.41
2019-04-14T05:37:27.107Z,42.37
2019-04-14T05:38:37.100Z,42.37
2019-04-14T05:39:26.733Z,42.38
2019-04-14T05:40:26.261Z,42.34
2019-04-14T05:41:26.725Z,42.36
2019-04-14T05:42:30.384Z,42.36
2019-04-14T05:44:27.789Z,42.37
2019-04-14T05:45:26.565Z,42.36
2019-04-14T05:46:27.592Z,42.37
2019-04-14T05:47:26.468Z,42.35
2019-04-14T05:48:27.708Z,42.3
2019-04-14T05:50:27.417Z,42.27
2019-04-14T05:51:26.706Z,42.29
2019-04-14T05:52:25.994Z,42.31
2019-04-14T05:53:26.500Z,42.32
2019-04-14T05:54:27.525Z,42.3
2019-04-14T05:55:26.528Z,42.26
2019-04-14T05:56:26.092Z,42.29
2019-04-14T05:57:26.542Z,42.25
2019-04-14T05:58:26.075Z,42.29
2019-04-14T05:59:26.777Z,42.33
2019-04-14T06:00:26.298Z,42.28
2019-04-14T06:01:27.285Z,42.32
2019-04-14T06:02:33.737Z,42.28
2019-04-14T06:03:26.120Z,42.26
2019-04-14T06:04:26.687Z,42.28
2019-04-14T06:05:27.633Z,42.27
2019-04-14T06:06:25.997Z,42.24
2019-04-14T06:07:25.969Z,42.29
2019-04-14T06:08:26.128Z,42.27
2019-04-14T06:09:25.901Z,42.26
2019-04-14T06:10:25.891Z,42.18
2019-04-14T06:11:25.965Z,42.29
2019-04-14T06:12:25.931Z,42.22
2019-04-14T06:13:25.957Z,42.18
2019-04-14T06:14:25.990Z,42.18
2019-04-14T06:15:26.007Z,42.21
2019-04-14T06:16:26.114Z,42.24
2019-04-14T06:17:26.165Z,42.24
2019-04-14T06:18:26.173Z,42.13
2019-04-14T06:19:40.949Z,42.15
2019-04-14T06:20:26.072Z,42.16
2019-04-14T06:21:26.107Z,42.16
2019-04-14T06:22:26.153Z,42.14
2019-04-14T06:23:26.097Z,42.17
2019-04-14T06:24:25.945Z,42.13
2019-04-14T06:25:25.973Z,42.14
2019-04-14T06:26:25.963Z,42.13
2019-04-14T06:27:25.916Z,42.19
2019-04-14T06:28:25.935Z,42.09
2019-04-14T06:29:26.045Z,42.13
2019-04-14T06:30:26.022Z,42.14
2019-04-14T06:31:26.010Z,42.12
2019-04-14T06:32:26.020Z,42.06
2019-04-14T06:33:26.013Z,42.11
2019-04-14T06:34:26.023Z,42.1
2019-04-14T06:35:26.079Z,42.11
2019-04-14T06:36:26.083Z,42.06
2019-04-14T06:37:26.168Z,42.15
2019-04-14T06:38:26.102Z,42.08
2019-04-14T06:39:26.289Z,42.03
2019-04-14T06:40:26.138Z,42.1
2019-04-14T06:41:26.069Z,42.09
2019-04-14T06:42:26.131Z,42.08
2019-04-14T06:43:26.029Z,42.1
2019-04-14T06:44:26.354Z,42.1
2019-04-14T06:45:25.873Z,42.04
2019-04-14T06:46:25.891Z,42.05
2019-04-14T06:47:25.973Z,42.05
2019-04-14T06:48:25.925Z,42.08
2019-04-14T06:49:25.974Z,42.08
2019-04-14T06:50:26.005Z,42.05
2019-04-14T06:51:25.968Z,42
2019-04-14T06:52:25.971Z,42.07
2019-04-14T06:53:26.115Z,42.07
2019-04-14T06:54:26.043Z,42.02
2019-04-14T06:55:26.086Z,41.96
2019-04-14T06:56:26.148Z,41.99
2019-04-14T06:57:26.030Z,41.99
2019-04-14T06:58:26.015Z,41.98
2019-04-14T06:59:26.189Z,42.02
2019-04-14T07:00:25.869Z,41.98
2019-04-14T07:01:25.913Z,41.04
2019-04-14T07:02:26.019Z,38.98
2019-04-14T07:03:25.861Z,38.32
2019-04-14T07:04:25.921Z,38.56
2019-04-14T07:05:26.094Z,38.79
2019-04-14T07:06:25.935Z,38.59
2019-04-14T07:07:25.997Z,38.44
2019-04-14T07:08:26.151Z,38.56
2019-04-14T07:09:25.996Z,39.17
2019-04-14T07:10:25.995Z,39.63
2019-04-14T07:11:26.153Z,39.74
2019-04-14T07:12:26.177Z,40.02
2019-04-14T07:13:26.053Z,40.25
2019-04-14T07:14:26.154Z,40.32
2019-04-14T07:15:26.082Z,40.23
2019-04-14T07:16:26.077Z,40.3
2019-04-14T07:17:26.270Z,40.25
2019-04-14T07:18:26.122Z,40.28
2019-04-14T07:19:26.170Z,40.24
2019-04-14T07:20:25.844Z,40.27
2019-04-14T07:21:25.842Z,40.24
2019-04-14T07:22:25.871Z,40.27
2019-04-14T07:23:25.907Z,40.29
2019-04-14T07:24:26.048Z,40.29
2019-04-14T07:25:25.971Z,40.3
2019-04-14T07:26:26.149Z,40.31
2019-04-14T07:27:26.035Z,40.34
2019-04-14T07:28:26.011Z,40.37
2019-04-14T07:29:26.463Z,40.35
2019-04-14T07:30:26.036Z,40.41
2019-04-14T07:31:26.219Z,40.4
2019-04-14T07:32:25.986Z,40.46
2019-04-14T07:33:26.153Z,40.41
2019-04-14T07:34:26.059Z,40.45
2019-04-14T07:35:26.056Z,40.44
2019-04-14T07:36:26.047Z,40.44
2019-04-14T07:37:26.072Z,40.49
2019-04-14T07:38:25.928Z,40.53
2019-04-14T07:39:25.914Z,40.53
2019-04-14T07:40:25.979Z,40.53
2019-04-14T07:41:25.902Z,40.57
2019-04-14T07:42:25.909Z,40.56
2019-04-14T07:43:25.933Z,40.53
2019-04-14T07:44:26.061Z,40.58
2019-04-14T07:45:25.975Z,40.63
2019-04-14T07:46:26.041Z,40.63
2019-04-14T07:47:26.131Z,40.65
2019-04-14T07:48:26.240Z,40.68
2019-04-14T07:49:26.045Z,40.68
2019-04-14T07:50:25.972Z,40.65
2019-04-14T07:51:26.079Z,40.7
2019-04-14T07:52:26.085Z,40.69
2019-04-14T07:53:26.159Z,40.75
2019-04-14T07:54:26.088Z,40.78
2019-04-14T07:55:26.175Z,40.74
2019-04-14T07:56:26.140Z,40.75
2019-04-14T07:57:25.831Z,40.78
2019-04-14T07:58:25.850Z,40.78
2019-04-14T07:59:25.909Z,40.82
2019-04-14T08:00:25.950Z,40.87
2019-04-14T08:01:26.313Z,40.83
2019-04-14T08:02:25.926Z,40.84
2019-04-14T08:03:25.972Z,40.87
2019-04-14T08:04:26.264Z,40.88
2019-04-14T08:05:25.998Z,40.88
2019-04-14T08:06:25.963Z,40.97
2019-04-14T08:07:26.077Z,40.94
2019-04-14T08:08:26.012Z,40.93
2019-04-14T08:09:26.069Z,40.97
2019-04-14T08:10:26.044Z,40.97
2019-04-14T08:11:26.167Z,40.96
2019-04-14T08:12:26.228Z,41.03
2019-04-14T08:13:26.058Z,41.02
2019-04-14T08:14:26.260Z,40.98
2019-04-14T08:15:25.914Z,41.03
2019-04-14T08:16:25.988Z,41.06
2019-04-14T08:17:25.889Z,41.05
2019-04-14T08:18:26.015Z,41.05
2019-04-14T08:19:25.996Z,41.06
2019-04-14T08:20:28.387Z,41.08
2019-04-14T08:21:26.189Z,41.13
2019-04-14T08:22:25.959Z,41.07
2019-04-14T08:23:25.965Z,41.1
2019-04-14T08:24:26.059Z,41.07
2019-04-14T08:25:26.016Z,41.2
2019-04-14T08:26:26.004Z,41.21
2019-04-14T08:27:26.124Z,41.26
2019-04-14T08:28:26.025Z,41.21
2019-04-14T08:29:26.070Z,41.21
2019-04-14T08:30:26.208Z,41.3
2019-04-14T08:31:26.167Z,41.27
2019-04-14T08:32:26.084Z,41.33
2019-04-14T08:33:26.149Z,41.28
2019-04-14T08:34:25.899Z,41.32
2019-04-14T08:35:25.841Z,41.37
2019-04-14T08:36:25.800Z,41.32
2019-04-14T08:37:25.807Z,41.35
2019-04-14T08:38:25.912Z,41.41
2019-04-14T08:39:25.878Z,41.97
2019-04-14T08:40:25.949Z,42.44
2019-04-14T08:41:26.086Z,42.2
2019-04-14T08:42:25.975Z,42.34
2019-04-14T08:43:25.915Z,42.53
2019-04-14T08:44:26.021Z,42.28
2019-04-14T08:45:26.205Z,42.16
2019-04-14T08:46:26.159Z,42.2
2019-04-14T08:47:26.024Z,42.2
2019-04-14T08:48:25.982Z,42.26
2019-04-14T08:49:26.021Z,42.31
2019-04-14T08:50:26.107Z,42.51
2019-04-14T08:51:25.877Z,42.55
2019-04-14T08:52:25.980Z,42.48
2019-04-14T08:53:26.123Z,42.51
2019-04-14T08:54:25.883Z,42.45
2019-04-14T08:55:26.108Z,42.53
2019-04-14T08:56:25.935Z,42.42
2019-04-14T08:57:26.068Z,42.53
2019-04-14T08:58:25.885Z,42.48
2019-04-14T08:59:26.175Z,42.46
2019-04-14T09:00:25.962Z,42.48
2019-04-14T09:01:26.063Z,42.52
2019-04-14T09:02:26.091Z,42.53
2019-04-14T09:03:26.009Z,42.53
2019-04-14T09:04:26.649Z,42.5
2019-04-14T09:05:26.007Z,42.57
2019-04-14T09:06:26.149Z,42.6
2019-04-14T09:07:26.012Z,42.57
2019-04-14T09:08:26.373Z,42.63
2019-04-14T09:09:25.825Z,42.6
2019-04-14T09:10:25.811Z,42.53
2019-04-14T09:11:25.896Z,42.57
2019-04-14T09:12:25.838Z,42.71
2019-04-14T09:13:25.844Z,42.75
2019-04-14T09:14:25.944Z,42.59
2019-04-14T09:15:25.859Z,42.71
2019-04-14T09:16:25.915Z,42.57
2019-04-14T09:17:25.951Z,42.61
2019-04-14T09:18:25.993Z,42.66
2019-04-14T09:19:25.982Z,42.63
2019-04-14T09:20:25.987Z,42.62
2019-04-14T09:21:26.089Z,42.58
2019-04-14T09:22:25.949Z,42.64
2019-04-14T09:23:26.225Z,42.74
2019-04-14T09:24:26.154Z,42.68
2019-04-14T09:25:26.158Z,42.64
2019-04-14T09:26:26.137Z,42.6
2019-04-14T09:27:25.909Z,42.62
2019-04-14T09:28:26.002Z,42.67
2019-04-14T09:29:25.871Z,43.07
2019-04-14T09:30:26.129Z,42.83
2019-04-14T09:31:25.862Z,42.72
2019-04-14T09:32:25.985Z,42.73
2019-04-14T09:33:25.979Z,42.69
2019-04-14T09:34:25.884Z,42.76
2019-04-14T09:35:25.904Z,42.72
2019-04-14T09:36:25.998Z,42.74
2019-04-14T09:37:26.007Z,42.76
2019-04-14T09:38:26.168Z,42.81
2019-04-14T09:39:26.028Z,42.65
2019-04-14T09:40:26.102Z,42.66
2019-04-14T09:41:26.033Z,42.69
2019-04-14T09:42:26.010Z,42.67
2019-04-14T09:43:26.095Z,42.68
2019-04-14T09:44:26.243Z,42.73
2019-04-14T09:45:26.180Z,42.74
2019-04-14T09:46:26.416Z,42.69
2019-04-14T09:47:25.865Z,42.68
2019-04-14T09:48:25.811Z,42.97
2019-04-14T09:49:25.809Z,42.8
2019-04-14T09:50:25.849Z,42.84
2019-04-14T09:51:25.831Z,42.83
2019-04-14T09:52:25.832Z,42.78
2019-04-14T09:53:25.922Z,41.17
2019-04-14T09:54:26.027Z,41.75
2019-04-14T09:55:25.910Z,41.67
2019-04-14T09:56:25.921Z,41.84
2019-04-14T09:57:25.946Z,41.95
2019-04-14T09:58:26.010Z,42.04
2019-04-14T09:59:25.973Z,42.13
2019-04-14T10:00:26.265Z,42.42
2019-04-14T10:01:26.042Z,42.4
2019-04-14T10:02:26.128Z,42.41
2019-04-14T10:03:26.077Z,42.57
2019-04-14T10:04:25.826Z,42.53
2019-04-14T10:05:25.865Z,42.53
2019-04-14T10:06:26.177Z,42.66
2019-04-14T10:07:26.675Z,42.53
2019-04-14T10:08:27.157Z,42.6
2019-04-14T10:09:26.211Z,42.6
2019-04-14T10:10:26.238Z,42.34
2019-04-14T10:11:25.946Z,42.42
2019-04-14T10:12:25.968Z,42.4
2019-04-14T10:13:26.115Z,42.42
2019-04-14T10:14:25.973Z,42.46
2019-04-14T10:15:25.936Z,42.42
2019-04-14T10:16:26.096Z,42.2
2019-04-14T10:17:25.979Z,42.29
2019-04-14T10:18:25.980Z,42.25
2019-04-14T10:19:25.989Z,42.21
2019-04-14T10:20:26.024Z,42.16
2019-04-14T10:21:26.011Z,42.23
2019-04-14T10:22:34.758Z,42.42
2019-04-14T10:23:26.002Z,42.1
2019-04-14T10:24:25.879Z,42.18
2019-04-14T10:25:25.785Z,42.19
2019-04-14T10:26:25.829Z,42.24
2019-04-14T10:27:25.859Z,42.08
2019-04-14T10:28:25.919Z,42.06
2019-04-14T10:29:25.849Z,42.19
2019-04-14T10:30:25.862Z,42.27
2019-04-14T10:31:25.921Z,42.24
2019-04-14T10:32:25.897Z,42.26
2019-04-14T10:33:25.871Z,42.21
2019-04-14T10:34:25.997Z,42.1
2019-04-14T10:35:25.969Z,42.21
2019-04-14T10:36:26.198Z,42.05
2019-04-14T10:37:25.953Z,42.19
2019-04-14T10:38:25.967Z,42.1
2019-04-14T10:39:25.971Z,42.18
2019-04-14T10:40:26.006Z,42.05
2019-04-14T10:41:25.794Z,42.14
2019-04-14T10:42:25.816Z,42.08
2019-04-14T10:43:25.972Z,42
2019-04-14T10:44:25.962Z,42.17
2019-04-14T10:45:25.952Z,42.36
2019-04-14T10:46:25.863Z,42.3
2019-04-14T10:47:25.971Z,42.21
2019-04-14T10:48:26.033Z,42.42
2019-04-14T10:49:26.039Z,42.18
2019-04-14T10:50:31.583Z,42.08
2019-04-14T10:51:34.435Z,41.95
2019-04-14T10:52:26.085Z,42.01
2019-04-14T10:53:25.965Z,41.96
2019-04-14T10:54:26.245Z,41.89
2019-04-14T10:55:25.979Z,41.87
2019-04-14T10:56:26.059Z,41.91
2019-04-14T10:57:26.041Z,41.84
2019-04-14T10:58:25.983Z,41.85
2019-04-14T10:59:25.857Z,41.89
2019-04-14T11:00:25.922Z,42.05
2019-04-14T11:01:25.783Z,42.01
2019-04-14T11:02:25.932Z,42
2019-04-14T11:03:25.877Z,41.92
2019-04-14T11:04:25.821Z,42.07
2019-04-14T11:05:25.961Z,41.91
2019-04-14T11:06:25.836Z,42.05
2019-04-14T11:07:26.015Z,42.3
2019-04-14T11:08:26.066Z,42.09
2019-04-14T11:09:25.948Z,41.99
2019-04-14T11:10:25.865Z,41.59
2019-04-14T11:11:25.997Z,41.57
2019-04-14T11:12:25.996Z,41.6
2019-04-14T11:13:26.198Z,41.57
2019-04-14T11:14:26.247Z,41.62
2019-04-14T11:15:26.030Z,41.62
2019-04-14T11:16:26.154Z,41.61
2019-04-14T11:17:25.920Z,41.56
2019-04-14T11:18:25.768Z,41.62
2019-04-14T11:19:25.791Z,41.6
2019-04-14T11:20:25.857Z,41.61
2019-04-14T11:21:25.974Z,41.56
2019-04-14T11:22:26.002Z,41.53
2019-04-14T11:23:25.877Z,41.55
2019-04-14T11:24:26.107Z,41.51
2019-04-14T11:25:25.875Z,41.52
2019-04-14T11:26:25.956Z,41.5
2019-04-14T11:27:25.992Z,41.51
2019-04-14T11:28:26.002Z,41.53
2019-04-14T11:29:26.037Z,41.51
2019-04-14T11:30:25.914Z,41.52
2019-04-14T11:31:25.980Z,41.53
2019-04-14T11:32:25.978Z,41.51
2019-04-14T11:33:26.084Z,41.52
2019-04-14T11:34:26.065Z,41.52
2019-04-14T11:35:26.268Z,41.5
2019-04-14T11:36:25.818Z,41.48
2019-04-14T11:37:25.843Z,41.45
2019-04-14T11:38:25.939Z,41.49
2019-04-14T11:39:25.967Z,41.51
2019-04-14T11:40:25.733Z,40.16
2019-04-14T11:41:26.019Z,38.93
2019-04-14T11:42:25.972Z,38.88
2019-04-14T11:43:25.833Z,39.05
2019-04-14T11:44:26.230Z,38.91
2019-04-14T11:45:26.047Z,38.88
2019-04-14T11:46:25.938Z,39.15
2019-04-14T11:47:25.956Z,39.28
2019-04-14T11:48:26.013Z,39.36
2019-04-14T11:49:25.900Z,39.58
2019-04-14T11:50:26.057Z,39.75
2019-04-14T11:51:26.000Z,39.98
2019-04-14T11:52:26.010Z,40.12
2019-04-14T11:53:25.975Z,40.27
2019-04-14T11:54:26.140Z,40.26
2019-04-14T11:55:25.718Z,40.38
2019-04-14T11:56:25.932Z,40.42
2019-04-14T11:57:25.782Z,40.38
2019-04-14T11:58:29.549Z,40.43
2019-04-14T11:59:25.969Z,40.47
2019-04-14T12:00:25.838Z,40.52
2019-04-14T12:01:26.068Z,40.52
2019-04-14T12:02:25.792Z,40.54
2019-04-14T12:03:25.882Z,40.54
2019-04-14T12:04:25.875Z,40.46
2019-04-14T12:05:25.925Z,40.49
2019-04-14T12:06:25.975Z,40.55
2019-04-14T12:07:26.064Z,40.51
2019-04-14T12:08:26.088Z,40.61
2019-04-14T12:09:26.068Z,40.48
2019-04-14T12:10:25.888Z,40.58
2019-04-14T12:11:25.995Z,40.66
2019-04-14T12:12:25.972Z,40.56
2019-04-14T12:13:25.940Z,40.56
2019-04-14T12:14:25.841Z,40.56
2019-04-14T12:15:25.765Z,40.74
2019-04-14T12:16:25.868Z,40.67
2019-04-14T12:17:25.908Z,40.65
2019-04-14T12:18:26.265Z,40.73
2019-04-14T12:19:25.874Z,40.71
2019-04-14T12:20:25.909Z,40.75
2019-04-14T12:21:25.855Z,40.69
2019-04-14T12:22:25.803Z,40.77
2019-04-14T12:23:25.933Z,40.75
2019-04-14T12:24:26.003Z,40.75
2019-04-14T12:25:25.953Z,40.69
2019-04-14T12:26:25.913Z,40.72
2019-04-14T12:27:26.016Z,40.72
2019-04-14T12:28:26.497Z,40.75
2019-04-14T12:29:26.407Z,40.79
2019-04-14T12:30:27.129Z,40.74
2019-04-14T12:31:26.751Z,40.76
2019-04-14T12:32:25.892Z,40.67
2019-04-14T12:33:25.745Z,40.81
2019-04-14T12:34:25.887Z,40.72
2019-04-14T12:35:25.902Z,40.78
2019-04-14T12:36:25.891Z,40.9
2019-04-14T12:37:26.005Z,40.86
2019-04-14T12:38:25.999Z,40.76
2019-04-14T12:39:26.305Z,40.84
2019-04-14T12:40:25.831Z,40.75
2019-04-14T12:41:26.898Z,40.81
2019-04-14T12:42:25.900Z,41.22
2019-04-14T12:43:27.354Z,41.18
2019-04-14T12:44:25.999Z,41.22
2019-04-14T12:45:26.250Z,41.23
2019-04-14T12:46:26.071Z,41.18
2019-04-14T12:47:26.153Z,41.16
2019-04-14T12:48:25.970Z,41.15
2019-04-14T12:49:25.704Z,41.25
2019-04-14T12:50:25.787Z,41.09
2019-04-14T12:51:25.775Z,41.01
2019-04-14T12:52:25.791Z,40.92
2019-04-14T12:53:26.899Z,40.94
2019-04-14T12:54:25.864Z,40.97
2019-04-14T12:55:25.865Z,40.99
2019-04-14T12:56:25.902Z,40.86
2019-04-14T12:57:25.814Z,41.01
2019-04-14T12:58:25.817Z,41.15
2019-04-14T12:59:26.248Z,41.15
2019-04-14T13:00:26.626Z,41.13
2019-04-14T13:01:26.167Z,41.14
2019-04-14T13:02:25.894Z,41.14
2019-04-14T13:03:26.002Z,41.11
2019-04-14T13:04:26.010Z,41.17
2019-04-14T13:05:26.189Z,41.18
2019-04-14T13:06:25.920Z,41.15
2019-04-14T13:07:26.086Z,41.29
2019-04-14T13:08:25.787Z,41.23
2019-04-14T13:09:25.941Z,41.22
2019-04-14T13:10:25.845Z,41.31
2019-04-14T13:11:25.824Z,41.24
2019-04-14T13:12:25.872Z,41.31
2019-04-14T13:13:25.760Z,41.26
2019-04-14T13:14:25.824Z,41.23
2019-04-14T13:15:25.828Z,41.17
2019-04-14T13:16:25.933Z,41.27
2019-04-14T13:17:25.921Z,41.25
2019-04-14T13:18:25.831Z,41.05
2019-04-14T13:19:25.877Z,41.15
2019-04-14T13:20:25.936Z,41.19
2019-04-14T13:21:25.886Z,41.17
2019-04-14T13:22:34.706Z,41.14
2019-04-14T13:23:27.898Z,41.13
2019-04-14T13:24:26.068Z,41.16
2019-04-14T13:25:45.213Z,41.44
2019-04-14T13:26:45.036Z,41.1
2019-04-14T13:27:45.186Z,41
2019-04-14T13:28:45.238Z,40.97
2019-04-14T13:29:45.334Z,40.9
2019-04-14T13:30:45.453Z,40.86
2019-04-14T13:31:44.964Z,40.79
2019-04-14T13:32:45.112Z,40.79
2019-04-14T13:33:45.032Z,40.83
2019-04-14T13:34:45.080Z,40.87
2019-04-14T13:35:47.380Z,40.98
2019-04-14T13:36:45.146Z,40.99
2019-04-14T13:37:45.090Z,41.08
2019-04-14T13:38:45.484Z,41.1
2019-04-14T13:39:45.126Z,41.21
2019-04-14T13:40:45.160Z,41.29
2019-04-14T13:41:45.143Z,41.16
2019-04-14T13:42:45.303Z,41.26
2019-04-14T13:43:45.231Z,41.29
2019-04-14T13:44:45.144Z,41.26
2019-04-14T13:45:45.052Z,41.33
2019-04-14T13:46:45.047Z,41.21
2019-04-14T13:47:45.054Z,41.37
2019-04-14T13:48:45.148Z,41.47
2019-04-14T13:49:45.144Z,41.45
2019-04-14T13:50:45.238Z,41.27
2019-04-14T13:51:45.074Z,41.42
2019-04-14T13:52:47.912Z,41.32
2019-04-14T13:53:45.251Z,41.27
2019-04-14T13:54:45.158Z,41.23
2019-04-14T13:55:45.250Z,41.2
2019-04-14T13:56:45.335Z,41.17
2019-04-14T13:57:45.049Z,41.1
2019-04-14T13:58:45.201Z,41.1
2019-04-14T13:59:45.261Z,41.1
2019-04-14T14:00:45.201Z,41.02
2019-04-14T14:01:45.400Z,41
2019-04-14T14:02:44.922Z,41
2019-04-14T14:03:44.982Z,40.96
2019-04-14T14:04:44.974Z,40.91
2019-04-14T14:05:45.022Z,40.94
2019-04-14T14:06:45.144Z,40.9
2019-04-14T14:07:45.120Z,40.88
2019-04-14T14:08:46.179Z,40.9
2019-04-14T14:09:45.110Z,40.88
2019-04-14T14:10:45.146Z,40.96
2019-04-14T14:11:45.103Z,40.97
2019-04-14T14:12:45.121Z,40.92
2019-04-14T14:13:45.354Z,40.94
2019-04-14T14:14:45.107Z,41.09
2019-04-14T14:15:45.132Z,40.72
2019-04-14T14:16:45.437Z,40.76
2019-04-14T14:17:45.142Z,40.8
2019-04-14T14:18:45.142Z,40.67
2019-04-14T14:19:45.202Z,40.65
2019-04-14T14:20:45.334Z,40.61
2019-04-14T14:21:45.078Z,40.54
2019-04-14T14:22:45.030Z,40.57
2019-04-14T14:23:45.031Z,40.73
2019-04-14T14:24:45.075Z,40.7
2019-04-14T14:25:44.884Z,40.73